createdAt,value
2019-02-03T00:01:54.353Z,22.37
2019-02-03T00:04:24.462Z,29.15
2019-02-03T00:07:03.018Z,23.10
2019-02-03T00:09:25.546Z,34.98
2019-02-03T00:11:55.107Z,26.95
2019-02-03T00:14:25.681Z,27.22
2019-02-03T00:16:55.610Z,28.23
2019-02-03T00:19:24.878Z,26.37
2019-02-03T00:21:54.458Z,32.70
2019-02-03T00:24:24.298Z,28.42
2019-02-03T00:26:53.913Z,20.60
2019-02-03T00:29:23.462Z,21.35
2019-02-03T00:31:53.007Z,18.55
2019-02-03T00:34:24.098Z,22.45
2019-02-03T00:36:54.150Z,19.92
2019-02-03T00:39:26.192Z,18.48
2019-02-03T00:41:55.811Z,19.62
2019-02-03T00:44:25.404Z,23.00
2019-02-03T00:46:54.724Z,21.83
2019-02-03T00:49:24.236Z,21.07
2019-02-03T00:51:53.710Z,20.80
2019-02-03T00:54:23.183Z,21.17
2019-02-03T00:56:53.169Z,18.80
2019-02-03T00:59:22.677Z,19.80
2019-02-03T01:01:52.285Z,21.87
2019-02-03T01:04:21.970Z,22.02
2019-02-03T01:06:51.504Z,16.80
2019-02-03T01:09:21.597Z,17.90
2019-02-03T01:11:51.151Z,22.37
2019-02-03T01:14:20.688Z,19.67
2019-02-03T01:16:50.292Z,20.82
2019-02-03T01:19:19.741Z,20.15
2019-02-03T01:21:49.323Z,18.27
2019-02-03T01:24:18.856Z,23.18
2019-02-03T01:26:48.124Z,20.95
2019-02-03T01:29:17.731Z,22.42
2019-02-03T01:31:49.225Z,22.58
2019-02-03T01:34:18.994Z,20.55
2019-02-03T01:36:48.843Z,25.43
2019-02-03T01:39:18.414Z,21.27
2019-02-03T01:41:47.982Z,22.45
2019-02-03T01:44:17.296Z,25.60
2019-02-03T01:46:46.857Z,24.60
2019-02-03T01:49:16.710Z,24.25
2019-02-03T01:51:46.093Z,24.10
2019-02-03T01:54:15.677Z,22.85
2019-02-03T01:56:45.680Z,24.25
2019-02-03T01:59:15.150Z,26.30
2019-02-03T02:01:44.792Z,25.82
2019-02-03T02:04:14.396Z,24.92
2019-02-03T02:06:43.916Z,29.55
2019-02-03T02:09:13.596Z,29.50
2019-02-03T02:11:43.136Z,30.15
2019-02-03T02:14:12.397Z,30.90
2019-02-03T02:16:42.609Z,24.90
2019-02-03T02:19:12.401Z,27.93
2019-02-03T02:21:41.950Z,30.62
2019-02-03T02:24:11.519Z,26.93
2019-02-03T02:26:41.048Z,26.65
2019-02-03T02:29:10.533Z,27.17
2019-02-03T02:31:40.179Z,26.93
2019-02-03T02:34:09.746Z,33.38
2019-02-03T02:36:39.258Z,27.37
2019-02-03T02:39:09.068Z,31.15
2019-02-03T02:41:38.703Z,29.20
2019-02-03T02:44:08.614Z,28.75
2019-02-03T02:46:38.227Z,33.95
2019-02-03T02:49:07.802Z,35.25
2019-02-03T02:51:37.336Z,30.02
2019-02-03T02:54:06.885Z,30.97
2019-02-03T02:56:36.449Z,30.15
2019-02-03T02:59:06.225Z,30.52
2019-02-03T03:01:36.123Z,33.35
2019-02-03T03:04:05.842Z,27.60
2019-02-03T03:06:35.314Z,28.90
2019-02-03T03:09:09.400Z,34.85
2019-02-03T03:11:39.010Z,33.20
2019-02-03T03:14:08.572Z,34.08
2019-02-03T03:16:38.100Z,30.43
2019-02-03T03:19:07.645Z,24.35
2019-02-03T03:21:37.243Z,27.82
2019-02-03T03:24:06.529Z,31.40
2019-02-03T03:26:36.112Z,30.57
2019-02-03T03:29:06.016Z,28.10
2019-02-03T03:31:35.567Z,27.93
2019-02-03T03:34:05.048Z,30.50
2019-02-03T03:36:34.941Z,35.25
2019-02-03T03:39:07.842Z,28.15
2019-02-03T03:41:37.373Z,30.65
2019-02-03T03:44:07.253Z,33.88
2019-02-03T03:46:36.702Z,40.00
2019-02-03T03:49:06.661Z,34.38
2019-02-03T03:51:36.180Z,35.50
2019-02-03T03:54:06.105Z,33.35
2019-02-03T03:56:35.651Z,34.53
2019-02-03T03:59:05.216Z,35.40
2019-02-03T04:01:34.484Z,36.73
2019-02-03T04:04:03.959Z,40.05
2019-02-03T04:06:33.465Z,27.85
2019-02-03T04:09:08.307Z,33.08
2019-02-03T04:11:38.358Z,35.10
2019-02-03T04:14:07.620Z,38.00
2019-02-03T04:16:36.838Z,39.27
2019-02-03T04:19:06.344Z,33.92
2019-02-03T04:21:35.976Z,33.98
2019-02-03T04:24:05.613Z,28.92
2019-02-03T04:26:35.137Z,40.70
2019-02-03T04:29:05.165Z,32.30
2019-02-03T04:31:34.783Z,34.98
2019-02-03T04:34:04.338Z,38.53
2019-02-03T04:36:33.646Z,28.47
2019-02-03T04:39:04.588Z,29.63
2019-02-03T04:41:36.985Z,29.02
2019-02-03T04:44:06.475Z,28.85
2019-02-03T04:46:37.778Z,31.50
2019-02-03T04:49:06.982Z,31.43
2019-02-03T04:51:36.459Z,31.27
2019-02-03T04:54:05.894Z,33.50
2019-02-03T04:56:35.589Z,30.45
2019-02-03T04:59:04.849Z,24.87
2019-02-03T05:01:36.951Z,30.95
2019-02-03T05:04:06.570Z,26.80
2019-02-03T05:06:36.042Z,31.37
2019-02-03T05:09:11.189Z,27.70
2019-02-03T05:11:39.625Z,27.77
2019-02-03T05:14:09.237Z,27.37
2019-02-03T05:16:38.692Z,28.38
2019-02-03T05:19:08.227Z,28.73
2019-02-03T05:21:38.160Z,30.90
2019-02-03T05:24:07.674Z,23.62
2019-02-03T05:26:37.229Z,25.97
2019-02-03T05:29:06.689Z,25.67
2019-02-03T05:31:36.244Z,23.60
2019-02-03T05:34:05.920Z,27.60
2019-02-03T05:36:36.053Z,24.10
2019-02-03T05:39:07.786Z,24.12
2019-02-03T05:41:37.025Z,25.70
2019-02-03T05:44:06.645Z,24.55
2019-02-03T05:46:36.210Z,27.55
2019-02-03T05:49:05.649Z,30.10
2019-02-03T05:51:34.874Z,26.77
2019-02-03T05:54:04.598Z,32.40
2019-02-03T05:56:34.129Z,36.75
2019-02-03T05:59:04.938Z,28.50
2019-02-03T06:01:34.594Z,26.67
2019-02-03T06:04:04.179Z,31.70
2019-02-03T06:06:33.990Z,27.93
2019-02-03T06:09:05.226Z,28.50
2019-02-03T06:11:34.407Z,31.40
2019-02-03T06:14:04.070Z,26.17
2019-02-03T06:16:33.245Z,26.40
2019-02-03T06:19:02.799Z,24.67
2019-02-03T06:21:32.058Z,32.13
2019-02-03T06:24:01.366Z,29.10
2019-02-03T06:26:30.818Z,31.15
2019-02-03T06:29:00.437Z,31.87
2019-02-03T06:31:29.745Z,30.00
2019-02-03T06:33:59.023Z,27.47
2019-02-03T06:36:28.583Z,34.45
2019-02-03T06:38:58.122Z,29.57
2019-02-03T06:41:27.456Z,32.77
2019-02-03T06:43:56.983Z,28.23
2019-02-03T06:46:44.946Z,29.07
2019-02-03T06:49:31.772Z,29.07
2019-02-03T06:52:02.057Z,28.80
2019-02-03T06:54:33.164Z,30.20
2019-02-03T06:57:02.732Z,35.28
2019-02-03T06:59:32.279Z,25.82
2019-02-03T07:02:02.043Z,31.10
2019-02-03T07:04:31.404Z,28.47
2019-02-03T07:07:00.629Z,30.50
2019-02-03T07:09:30.420Z,30.85
2019-02-03T07:12:00.398Z,30.40
2019-02-03T07:14:30.023Z,31.82
2019-02-03T07:16:59.732Z,35.05
2019-02-03T07:19:29.317Z,32.95
2019-02-03T07:21:58.573Z,29.85
2019-02-03T07:24:28.141Z,33.08
2019-02-03T07:26:57.714Z,31.40
2019-02-03T07:29:27.629Z,32.13
2019-02-03T07:31:56.894Z,29.77
2019-02-03T07:34:26.433Z,31.67
2019-02-03T07:36:56.083Z,35.63
2019-02-03T07:39:25.403Z,36.50
2019-02-03T07:41:55.237Z,35.20
2019-02-03T07:44:25.077Z,34.63
2019-02-03T07:46:54.686Z,36.23
2019-02-03T07:49:24.180Z,28.07
2019-02-03T07:51:53.759Z,32.15
2019-02-03T07:54:23.334Z,33.78
2019-02-03T07:56:53.167Z,34.60
2019-02-03T07:59:22.727Z,32.40
2019-02-03T08:01:52.242Z,27.77
2019-02-03T08:04:21.868Z,29.32
2019-02-03T08:06:51.465Z,24.98
2019-02-03T08:09:21.206Z,26.00
2019-02-03T08:11:51.007Z,25.90
2019-02-03T08:14:20.331Z,26.35
2019-02-03T08:16:50.016Z,27.65
2019-02-03T08:19:19.309Z,30.50
2019-02-03T08:21:48.862Z,32.85
2019-02-03T08:24:18.598Z,24.52
2019-02-03T08:26:48.166Z,25.12
2019-02-03T08:29:18.155Z,22.60
2019-02-03T08:31:47.710Z,22.67
2019-02-03T08:34:17.245Z,22.22
2019-02-03T08:36:46.874Z,23.10
2019-02-03T08:39:17.025Z,16.27
2019-02-03T08:41:47.973Z,23.93
2019-02-03T08:44:17.596Z,20.70
2019-02-03T08:46:47.081Z,21.57
2019-02-03T08:49:16.480Z,22.67
2019-02-03T08:51:46.073Z,19.40
2019-02-03T08:54:15.681Z,18.42
2019-02-03T08:56:44.899Z,21.30
2019-02-03T08:59:14.571Z,22.65
2019-02-03T09:01:47.180Z,18.17
2019-02-03T09:04:16.490Z,16.93
2019-02-03T09:06:45.790Z,21.43
2019-02-03T09:09:15.027Z,19.50
2019-02-03T09:11:44.583Z,18.42
2019-02-03T09:14:17.396Z,19.03
2019-02-03T09:16:47.263Z,17.42
2019-02-03T09:19:17.338Z,18.37
2019-02-03T09:21:46.657Z,16.77
2019-02-03T09:24:16.172Z,20.10
2019-02-03T09:26:45.739Z,16.23
2019-02-03T09:29:15.068Z,15.07
2019-02-03T09:31:44.655Z,22.97
2019-02-03T09:34:13.929Z,18.57
2019-02-03T09:36:43.172Z,17.27
2019-02-03T09:39:13.500Z,16.80
2019-02-03T09:41:42.772Z,18.30
2019-02-03T09:44:12.586Z,15.63
2019-02-03T09:46:42.318Z,16.90
2019-02-03T09:49:11.673Z,16.17
2019-02-03T09:51:41.192Z,15.30
2019-02-03T09:54:10.813Z,17.85
2019-02-03T09:56:40.065Z,17.20
2019-02-03T09:59:09.434Z,17.20
2019-02-03T10:01:38.885Z,14.17
2019-02-03T10:04:08.626Z,14.53
2019-02-03T10:06:38.150Z,16.43
2019-02-03T10:09:13.197Z,13.77
2019-02-03T10:11:42.594Z,12.23
2019-02-03T10:14:12.062Z,11.70
2019-02-03T10:16:41.378Z,11.67
2019-02-03T10:19:12.788Z,9.63
2019-02-03T10:21:46.593Z,9.40
2019-02-03T10:24:16.184Z,9.90
2019-02-03T10:26:45.636Z,8.50
2019-02-03T10:29:15.022Z,9.20
2019-02-03T10:31:44.260Z,9.87
2019-02-03T10:34:13.540Z,7.50
2019-02-03T10:36:42.893Z,9.23
2019-02-03T10:39:12.552Z,8.70
2019-02-03T10:41:41.815Z,6.50
2019-02-03T10:44:11.136Z,9.10
2019-02-03T10:46:40.417Z,6.90
2019-02-03T10:49:09.815Z,9.30
2019-02-03T10:51:39.124Z,8.63
2019-02-03T10:54:08.776Z,7.90
2019-02-03T10:56:38.170Z,7.57
2019-02-03T10:59:07.665Z,6.63
2019-02-03T11:01:36.910Z,8.97
2019-02-03T11:04:07.190Z,7.07
2019-02-03T11:06:36.561Z,8.40
2019-02-03T11:09:09.344Z,7.03
2019-02-03T11:11:38.629Z,7.67
2019-02-03T11:14:07.891Z,7.60
2019-02-03T11:16:37.577Z,7.87
2019-02-03T11:19:06.785Z,8.60
2019-02-03T11:21:36.342Z,4.37
2019-02-03T11:24:06.136Z,6.93
2019-02-03T11:26:35.405Z,7.03
2019-02-03T11:29:04.953Z,6.75
2019-02-03T11:31:34.413Z,6.57
2019-02-03T11:34:04.000Z,6.37
2019-02-03T11:36:33.359Z,5.90
2019-02-03T11:39:02.933Z,6.50
2019-02-03T11:41:32.208Z,6.30
2019-02-03T11:44:01.474Z,6.10
2019-02-03T11:46:31.101Z,6.78
2019-02-03T11:49:00.406Z,5.63
2019-02-03T18:08:36.394Z,4.37
2019-02-03T18:11:06.323Z,4.20
2019-02-03T18:13:38.151Z,4.27
2019-02-03T18:16:14.798Z,4.03
2019-02-03T18:18:44.238Z,4.83
2019-02-03T18:21:17.998Z,4.87
2019-02-03T18:23:47.780Z,5.73
2019-02-03T18:26:17.350Z,4.70
2019-02-03T18:28:46.801Z,4.30
2019-02-03T18:31:19.673Z,5.10
2019-02-03T18:33:50.614Z,6.60
2019-02-03T18:36:24.614Z,5.80
2019-02-03T18:38:55.595Z,4.67
2019-02-03T18:41:25.504Z,3.90
2019-02-03T18:43:59.357Z,5.13
2019-02-03T18:46:28.926Z,5.10
2019-02-03T18:49:01.458Z,5.43
2019-02-03T18:51:35.394Z,4.83
2019-02-03T18:54:05.037Z,5.87
2019-02-03T18:56:37.419Z,6.07
2019-02-03T18:59:12.782Z,5.20
2019-02-03T19:01:44.170Z,5.70
2019-02-03T19:04:13.891Z,5.15
2019-02-03T19:06:52.230Z,5.97
2019-02-03T19:09:21.645Z,6.20
2019-02-03T19:11:51.082Z,7.60
2019-02-03T19:14:24.853Z,5.63
2019-02-03T19:16:57.203Z,7.07
2019-02-03T19:19:26.966Z,6.17
2019-02-03T19:22:00.707Z,5.13
2019-02-03T19:24:30.224Z,6.40
2019-02-03T19:27:00.086Z,7.03
2019-02-03T19:29:29.788Z,8.57
2019-02-03T19:32:01.408Z,7.57
2019-02-03T19:34:34.066Z,5.83
2019-02-03T19:37:05.584Z,5.75
2019-02-03T19:39:34.986Z,6.00
2019-02-03T19:42:04.623Z,6.20
2019-02-03T19:44:34.154Z,4.87
2019-02-03T19:47:05.136Z,5.80
2019-02-03T19:49:34.673Z,5.17
2019-02-03T19:52:06.107Z,6.57
2019-02-03T19:54:37.005Z,6.23
2019-02-03T19:57:16.574Z,7.17
2019-02-03T19:59:47.088Z,7.43
2019-02-03T20:02:16.646Z,7.30
2019-02-03T20:04:45.973Z,7.77
2019-02-03T20:07:15.389Z,6.77
2019-02-03T20:09:44.952Z,8.10
2019-02-03T20:12:14.540Z,7.27
2019-02-03T20:14:45.763Z,7.90
2019-02-03T20:17:15.142Z,7.60
2019-02-03T20:19:46.481Z,7.23
2019-02-03T20:22:16.340Z,7.30
2019-02-03T20:24:46.006Z,6.40
2019-02-03T20:27:16.748Z,5.80
2019-02-03T20:29:46.295Z,4.00
2019-02-03T20:32:15.827Z,6.20
2019-02-03T20:34:45.317Z,7.40
2019-02-03T20:37:14.742Z,6.80
2019-02-03T20:39:44.364Z,8.70
2019-02-03T20:42:13.816Z,6.60
2019-02-03T20:44:43.655Z,6.03
2019-02-03T20:47:14.482Z,7.65
2019-02-03T20:49:46.617Z,7.50
2019-02-03T20:52:17.607Z,7.60
2019-02-03T20:54:47.533Z,7.83
2019-02-03T20:57:17.165Z,8.00
2019-02-03T20:59:47.049Z,8.70
2019-02-03T21:02:16.369Z,8.07
2019-02-03T21:04:45.703Z,7.50
2019-02-03T21:07:15.079Z,7.47
2019-02-03T21:09:44.321Z,7.53
2019-02-03T21:12:13.871Z,8.53
2019-02-03T21:14:43.494Z,7.77
2019-02-03T21:17:13.108Z,8.00
2019-02-03T21:19:42.456Z,6.97
2019-02-03T21:22:12.009Z,8.05
2019-02-03T21:24:41.381Z,9.30
2019-02-03T21:27:10.956Z,8.93
2019-02-03T21:29:40.758Z,7.92
2019-02-03T21:32:10.405Z,6.80
2019-02-03T21:34:39.660Z,8.80
2019-02-03T21:37:08.957Z,8.10
2019-02-03T21:39:38.520Z,10.45
2019-02-03T21:42:08.184Z,9.73
2019-02-03T21:44:38.575Z,8.57
2019-02-03T21:47:08.182Z,8.60
2019-02-03T21:49:38.776Z,8.30
2019-02-03T21:52:08.355Z,7.35
2019-02-03T21:54:37.794Z,8.23
2019-02-03T21:57:10.252Z,7.87
2019-02-03T21:59:39.644Z,8.83
2019-02-03T22:02:08.955Z,7.80
2019-02-03T22:04:38.540Z,7.58
2019-02-03T22:07:08.304Z,8.57
2019-02-03T22:09:40.832Z,8.00
2019-02-03T22:12:10.391Z,7.97
2019-02-03T22:14:40.047Z,7.95
2019-02-03T22:17:09.379Z,7.33
2019-02-03T22:19:39.120Z,7.67
2019-02-03T22:22:08.804Z,7.10
2019-02-03T22:24:38.154Z,8.40
2019-02-03T22:27:07.624Z,9.65
2019-02-03T22:29:37.017Z,8.10
2019-02-03T22:32:06.426Z,8.53
2019-02-03T22:34:36.977Z,8.70
2019-02-03T22:37:06.817Z,8.80
2019-02-03T22:39:38.861Z,8.33
2019-02-03T22:42:08.580Z,8.37
2019-02-03T22:44:37.999Z,7.97
2019-02-03T22:47:07.653Z,9.35
2019-02-03T22:49:37.857Z,8.80
2019-02-03T22:52:07.634Z,7.95
2019-02-03T22:54:37.325Z,9.58
2019-02-03T22:57:22.286Z,8.90
2019-02-03T23:00:01.056Z,9.10
2019-02-03T23:02:28.110Z,9.58
2019-02-03T23:04:57.465Z,7.72
2019-02-03T23:07:27.199Z,10.58
2019-02-03T23:09:56.823Z,9.78
2019-02-03T23:12:27.006Z,10.78
2019-02-03T23:14:58.723Z,8.30
2019-02-03T23:17:52.183Z,9.23
2019-02-03T23:20:24.988Z,8.33
2019-02-03T23:22:54.625Z,8.28
2019-02-03T23:25:24.363Z,6.25
2019-02-03T23:27:53.748Z,9.50
2019-02-03T23:30:44.339Z,8.88
2019-02-03T23:33:18.236Z,7.95
2019-02-03T23:35:47.782Z,7.95
2019-02-03T23:38:17.357Z,4.28
2019-02-03T23:40:47.154Z,4.73
2019-02-03T23:43:17.413Z,8.40
2019-02-03T23:45:46.892Z,7.58
2019-02-03T23:48:16.366Z,9.58
2019-02-03T23:50:46.180Z,8.48
2019-02-03T23:53:15.751Z,7.33
2019-02-03T23:55:45.334Z,8.48
2019-02-03T23:58:14.696Z,3.92
